Time;durP1;ratioP1;P1;durP2;ratioP2;P2;SDS_P1;SDS_P2;PMS_P1;PMS_P2;Temp;Humidity;BMP_temperature;BMP_pressure;BME280_temperature;BME280_humidity;BME280_pressure;Samples;Min_cycle;Max_cycle;Signal;HPM_P1;HPM_P2
2022/01/22 00:00:12;;;;;;;0.00;0.00;;;2.30;69.60;;;;;;4194989;28;20079;-57
2022/01/22 00:02:35;;;;;;;0.00;0.00;;;2.30;69.70;;;;;;4166268;28;20045;-60
2022/01/22 00:04:57;;;;;;;0.00;0.00;;;2.10;69.80;;;;;;4180577;28;20052;-61
2022/01/22 00:07:20;;;;;;;0.00;0.00;;;2.00;70.30;;;;;;4180224;28;20048;-62
2022/01/22 00:09:50;;;;;;;0.00;0.00;;;1.90;70.80;;;;;;4166777;28;20049;-59
2022/01/22 00:12:25;;;;;;;0.00;0.00;;;1.80;71.20;;;;;;4193380;28;20139;-60
2022/01/22 00:14:47;;;;;;;0.00;0.00;;;1.70;71.50;;;;;;4194351;28;20493;-60
2022/01/22 00:17:09;;;;;;;0.00;0.00;;;1.80;71.70;;;;;;4194025;28;20036;-57
2022/01/22 00:19:31;;;;;;;0.00;0.00;;;1.90;71.60;;;;;;4180332;28;20072;-59
2022/01/22 00:21:55;;;;;;;0.00;0.00;;;2.00;71.40;;;;;;4179979;28;20079;-61
2022/01/22 00:24:17;;;;;;;0.00;0.00;;;2.00;71.20;;;;;;4193709;28;20155;-56
2022/01/22 00:26:41;;;;;;;0.00;0.00;;;2.00;71.40;;;;;;4179960;28;20079;-59
2022/01/22 00:29:04;;;;;;;0.00;0.00;;;2.10;71.50;;;;;;4180060;28;20114;-55
2022/01/22 00:31:26;;;;;;;0.00;0.00;;;2.10;71.20;;;;;;4165931;28;20104;-59
2022/01/22 00:33:48;;;;;;;0.00;0.00;;;2.20;71.20;;;;;;4179538;28;20588;-57
2022/01/22 00:36:11;;;;;;;0.00;0.00;;;2.20;71.20;;;;;;4179749;28;20076;-58
2022/01/22 00:38:33;;;;;;;0.00;0.00;;;2.20;71.20;;;;;;4179264;28;20506;-59
2022/01/22 00:40:57;;;;;;;0.00;0.00;;;2.30;71.30;;;;;;4179650;28;20052;-59
2022/01/22 00:43:20;;;;;;;0.00;0.00;;;2.30;71.20;;;;;;4179810;28;20057;-58
2022/01/22 00:45:43;;;;;;;0.00;0.00;;;2.30;71.10;;;;;;4179923;28;20473;-61
2022/01/22 00:48:05;;;;;;;0.00;0.00;;;2.30;71.10;;;;;;4179606;28;20095;-61
2022/01/22 00:50:28;;;;;;;0.00;0.00;;;2.40;71.30;;;;;;4179473;28;20053;-60
2022/01/22 00:52:50;;;;;;;0.00;0.00;;;2.40;71.20;;;;;;4165669;28;20060;-60
2022/01/22 00:55:14;;;;;;;0.00;0.00;;;2.40;71.00;;;;;;4179800;28;20045;-61
2022/01/22 00:57:36;;;;;;;0.00;0.00;;;2.50;70.90;;;;;;4179650;28;20498;-60
2022/01/22 01:00:00;;;;;;;0.00;0.00;;;2.50;70.90;;;;;;4179394;28;20047;-60
2022/01/22 01:02:22;;;;;;;0.00;0.00;;;2.50;70.90;;;;;;4175333;28;20052;-58
2022/01/22 01:04:45;;;;;;;0.00;0.00;;;2.50;70.90;;;;;;4195946;28;20036;-60
2022/01/22 01:07:07;;;;;;;0.00;0.00;;;2.50;70.80;;;;;;4195886;28;20098;-60
2022/01/22 01:09:38;;;;;;;0.00;0.00;;;2.50;70.90;;;;;;4185481;28;20136;-60
2022/01/22 01:12:06;;;;;;;0.00;0.00;;;2.50;70.80;;;;;;4180133;28;20084;-60
2022/01/22 01:14:38;;;;;;;0.00;0.00;;;2.50;70.80;;;;;;4195572;28;20053;-59
2022/01/22 01:17:58;;;;;;;0.00;0.00;;;2.60;70.80;;;;;;4195830;28;20079;-59
2022/01/22 01:36:47;;;;;;;0.00;0.00;;;2.30;71.90;;;;;;4195258;28;20106;-56
2022/01/22 01:39:17;;;;;;;0.00;0.00;;;2.30;72.00;;;;;;4186865;28;20151;-58
2022/01/22 01:44:13;;;;;;;0.00;0.00;;;2.30;72.10;;;;;;4178573;28;20050;-60
2022/01/22 01:47:10;;;;;;;0.00;0.00;;;2.30;72.10;;;;;;4180073;28;20048;-58
2022/01/22 01:49:40;;;;;;;0.00;0.00;;;2.30;72.10;;;;;;4179866;28;20049;-59
2022/01/22 01:52:31;;;;;;;0.00;0.00;;;2.30;72.30;;;;;;4195985;28;20680;-59
2022/01/22 01:55:08;;;;;;;0.00;0.00;;;2.30;72.30;;;;;;4195646;28;20045;-60
2022/01/22 01:57:40;;;;;;;0.00;0.00;;;2.30;72.30;;;;;;4195443;28;20052;-59
2022/01/22 02:00:20;;;;;;;0.00;0.00;;;2.30;72.50;;;;;;4195523;28;20056;-58
2022/01/22 02:02:50;;;;;;;0.00;0.00;;;2.30;72.60;;;;;;4163663;28;20045;-56
2022/01/22 02:05:27;;;;;;;0.00;0.00;;;2.20;72.70;;;;;;4163399;28;20045;-60
2022/01/22 02:07:55;;;;;;;0.00;0.00;;;2.10;72.80;;;;;;4163263;28;20050;-60
2022/01/22 02:10:33;;;;;;;0.00;0.00;;;2.10;73.00;;;;;;4148795;28;20057;-59
2022/01/22 02:13:39;;;;;;;0.00;0.00;;;2.00;73.00;;;;;;4161832;28;20128;-58
2022/01/22 02:24:04;;;;;;;0.00;0.00;;;2.10;73.10;;;;;;4161979;28;20045;-56
2022/01/22 02:26:32;;;;;;;0.00;0.00;;;2.00;73.10;;;;;;4148619;28;20065;-58
2022/01/22 02:28:58;;;;;;;0.00;0.00;;;2.10;73.20;;;;;;4148502;28;20049;-60
2022/01/22 02:32:17;;;;;;;0.00;0.00;;;2.10;73.10;;;;;;4149996;28;20619;-59
2022/01/22 02:34:50;;;;;;;0.00;0.00;;;2.10;73.00;;;;;;4161074;28;20414;-60
2022/01/22 02:37:16;;;;;;;0.00;0.00;;;2.20;72.90;;;;;;4147806;28;20038;-60
2022/01/22 02:40:01;;;;;;;0.00;0.00;;;2.20;72.70;;;;;;4161575;28;20521;-62
2022/01/22 02:42:26;;;;;;;0.00;0.00;;;2.10;72.80;;;;;;4160959;28;20081;-60
2022/01/22 02:44:51;;;;;;;0.00;0.00;;;2.00;73.10;;;;;;4161605;28;20070;-60
2022/01/22 02:47:15;;;;;;;0.00;0.00;;;2.00;73.30;;;;;;4175222;28;20051;-59
2022/01/22 02:49:38;;;;;;;0.00;0.00;;;2.10;73.20;;;;;;4175292;28;20060;-59
2022/01/22 02:52:09;;;;;;;0.00;0.00;;;2.20;73.00;;;;;;4175098;28;20055;-60
2022/01/22 02:54:39;;;;;;;0.00;0.00;;;2.20;72.70;;;;;;4147368;28;20388;-57
2022/01/22 02:57:01;;;;;;;0.00;0.00;;;2.20;72.60;;;;;;4175463;28;20045;-58
2022/01/22 02:59:23;;;;;;;0.00;0.00;;;2.20;72.40;;;;;;4161302;28;20104;-59
2022/01/22 03:01:48;;;;;;;0.00;0.00;;;2.20;72.30;;;;;;4179648;28;20045;-58
2022/01/22 03:04:11;;;;;;;0.00;0.00;;;2.30;72.20;;;;;;4177333;28;20238;-60
2022/01/22 03:06:33;;;;;;;0.00;0.00;;;2.30;71.70;;;;;;4161445;28;20575;-61
2022/01/22 03:08:56;;;;;;;0.00;0.00;;;2.20;71.50;;;;;;4147539;28;20049;-57
2022/01/22 03:11:23;;;;;;;0.00;0.00;;;2.20;71.50;;;;;;4147188;28;20049;-60
2022/01/22 03:16:33;;;;;;;0.00;0.00;;;2.20;71.30;;;;;;4162857;28;20041;-60
2022/01/22 03:29:14;;;;;;;0.00;0.00;;;2.20;70.70;;;;;;4153229;28;20064;-59
2022/01/22 03:31:38;;;;;;;0.00;0.00;;;2.10;70.40;;;;;;4179547;28;20163;-59
2022/01/22 03:34:00;;;;;;;0.00;0.00;;;1.90;70.60;;;;;;4180600;28;20122;-60
2022/01/22 03:36:28;;;;;;;0.00;0.00;;;1.80;71.10;;;;;;4166651;28;20056;-59
2022/01/22 03:38:51;;;;;;;0.00;0.00;;;1.60;71.50;;;;;;4180990;28;20447;-56
2022/01/22 03:41:14;;;;;;;0.00;0.00;;;1.60;72.00;;;;;;4180483;28;20049;-56
2022/01/22 03:43:39;;;;;;;0.00;0.00;;;1.60;72.20;;;;;;4180740;28;20049;-60
2022/01/22 03:46:02;;;;;;;0.00;0.00;;;1.70;72.00;;;;;;4166667;28;20060;-60
2022/01/22 03:48:25;;;;;;;0.00;0.00;;;1.70;72.00;;;;;;4166354;28;20046;-60
2022/01/22 03:50:49;;;;;;;0.00;0.00;;;1.70;72.20;;;;;;4180373;28;20410;-60
2022/01/22 03:53:12;;;;;;;0.00;0.00;;;1.70;72.60;;;;;;4172052;28;20108;-59
2022/01/22 03:58:17;;;;;;;0.00;0.00;;;1.80;72.90;;;;;;4163628;28;20047;-60
2022/01/22 04:00:44;;;;;;;0.00;0.00;;;1.80;73.00;;;;;;4163883;28;20050;-61
2022/01/22 04:03:42;;;;;;;0.00;0.00;;;1.70;73.20;;;;;;4157797;28;20231;-58
2022/01/22 04:08:37;;;;;;;0.00;0.00;;;1.90;73.10;;;;;;4179991;28;20040;-59
2022/01/22 04:10:59;;;;;;;0.00;0.00;;;1.90;73.20;;;;;;4180202;28;20339;-60
2022/01/22 04:13:30;;;;;;;0.00;0.00;;;1.80;73.50;;;;;;4180058;28;20045;-59
2022/01/22 04:15:53;;;;;;;0.00;0.00;;;1.70;73.80;;;;;;4166157;28;20133;-57
2022/01/22 04:28:42;;;;;;;0.00;0.00;;;1.60;74.70;;;;;;4179934;28;20409;-60
2022/01/22 04:31:06;;;;;;;0.00;0.00;;;1.70;74.40;;;;;;4164900;28;20149;-59
2022/01/22 04:33:29;;;;;;;0.00;0.00;;;1.80;73.90;;;;;;4165943;28;20049;-59
2022/01/22 04:35:51;;;;;;;0.00;0.00;;;1.80;73.60;;;;;;4179921;28;20095;-60
2022/01/22 04:38:14;;;;;;;0.00;0.00;;;1.80;73.50;;;;;;4179298;28;20045;-62
2022/01/22 04:40:36;;;;;;;0.00;0.00;;;1.90;73.30;;;;;;4179684;28;20052;-58
2022/01/22 04:43:00;;;;;;;0.00;0.00;;;1.90;73.00;;;;;;4193703;28;20120;-58
2022/01/22 04:48:25;;;;;;;0.00;0.00;;;1.90;72.80;;;;;;4193698;28;20048;-61
2022/01/22 04:56:15;;;;;;;0.00;0.00;;;1.70;72.90;;;;;;4179331;28;20044;-56
2022/01/22 04:58:39;;;;;;;0.00;0.00;;;1.60;73.00;;;;;;4179523;28;20284;-59
2022/01/22 05:01:01;;;;;;;0.00;0.00;;;1.60;73.10;;;;;;4165426;28;20050;-60
2022/01/22 05:03:53;;;;;;;0.00;0.00;;;1.60;73.20;;;;;;4179384;28;20142;-61
2022/01/22 05:06:37;;;;;;;0.00;0.00;;;1.50;73.20;;;;;;4165180;28;20430;-60
2022/01/22 05:09:17;;;;;;;0.00;0.00;;;1.50;73.20;;;;;;4179418;28;20041;-58
2022/01/22 05:11:52;;;;;;;0.00;0.00;;;1.60;73.20;;;;;;4179073;28;20575;-61
2022/01/22 05:14:14;;;;;;;0.00;0.00;;;1.60;73.20;;;;;;4178990;28;20044;-60
2022/01/22 05:16:37;;;;;;;0.00;0.00;;;1.60;73.10;;;;;;4179342;28;20638;-59
2022/01/22 05:19:06;;;;;;;0.00;0.00;;;1.60;73.00;;;;;;4165445;28;20049;-55
2022/01/22 05:21:33;;;;;;;0.00;0.00;;;1.70;73.00;;;;;;4165016;28;20538;-60
2022/01/22 05:24:00;;;;;;;0.00;0.00;;;1.70;72.90;;;;;;4193087;28;20128;-56
2022/01/22 05:27:08;;;;;;;0.00;0.00;;;1.70;72.90;;;;;;4178710;28;20041;-58
2022/01/22 05:32:15;;;;;;;0.00;0.00;;;1.90;72.80;;;;;;4164463;28;20048;-60
2022/01/22 05:37:47;;;;;;;0.00;0.00;;;1.90;72.80;;;;;;4164893;28;20101;-60
2022/01/22 05:40:11;;;;;;;0.00;0.00;;;2.10;72.60;;;;;;4179021;28;20136;-58
2022/01/22 05:42:35;;;;;;;0.00;0.00;;;2.30;72.30;;;;;;4164752;28;20042;-58
2022/01/22 05:44:58;;;;;;;0.00;0.00;;;2.30;72.10;;;;;;4178802;28;20044;-59
2022/01/22 05:47:24;;;;;;;0.00;0.00;;;2.30;72.00;;;;;;4178715;28;20156;-60
2022/01/22 05:49:46;;;;;;;0.00;0.00;;;2.30;72.10;;;;;;4177962;28;20048;-60
2022/01/22 05:52:10;;;;;;;0.00;0.00;;;2.30;72.00;;;;;;4178344;28;20045;-57
2022/01/22 05:55:07;;;;;;;0.00;0.00;;;2.20;71.80;;;;;;4164585;28;20144;-60
2022/01/22 06:00:40;;;;;;;0.00;0.00;;;2.10;71.50;;;;;;4171778;28;20041;-49
2022/01/22 06:03:12;;;;;;;0.00;0.00;;;2.00;71.20;;;;;;4178631;28;20059;-53
2022/01/22 06:05:36;;;;;;;0.00;0.00;;;2.00;71.10;;;;;;4164787;28;20481;-50
2022/01/22 06:07:59;;;;;;;0.00;0.00;;;2.20;71.10;;;;;;4164676;28;20051;-48
2022/01/22 06:10:27;;;;;;;0.00;0.00;;;2.20;70.90;;;;;;4177691;28;20045;-54
2022/01/22 06:15:17;;;;;;;0.00;0.00;;;2.20;70.60;;;;;;4192291;28;20139;-53
2022/01/22 06:17:58;;;;;;;0.00;0.00;;;2.20;70.60;;;;;;4178543;28;20121;-54
2022/01/22 06:20:21;;;;;;;0.00;0.00;;;2.10;70.60;;;;;;4177035;28;20084;-51
2022/01/22 06:22:44;;;;;;;0.00;0.00;;;2.10;70.90;;;;;;4166997;28;20048;-50
2022/01/22 06:25:08;;;;;;;0.00;0.00;;;2.10;71.00;;;;;;4165171;28;20065;-48
2022/01/22 06:27:32;;;;;;;0.00;0.00;;;2.10;71.20;;;;;;4178904;28;20126;-49
2022/01/22 06:29:54;;;;;;;0.00;0.00;;;2.00;71.20;;;;;;4178702;28;20124;-52
2022/01/22 06:32:16;;;;;;;0.00;0.00;;;2.00;71.40;;;;;;4164074;28;20045;-51
2022/01/22 06:34:39;;;;;;;0.00;0.00;;;1.90;71.60;;;;;;4174561;28;20120;-52
2022/01/22 06:37:03;;;;;;;0.00;0.00;;;1.90;71.80;;;;;;4169307;28;20052;-51
2022/01/22 06:39:51;;;;;;;0.00;0.00;;;1.90;72.00;;;;;;4178641;28;20048;-56
2022/01/22 06:42:38;;;;;;;0.00;0.00;;;1.90;72.20;;;;;;4164708;28;20049;-48
2022/01/22 06:45:14;;;;;;;0.00;0.00;;;2.00;72.20;;;;;;4178443;28;20064;-51
2022/01/22 06:47:45;;;;;;;0.00;0.00;;;2.10;72.20;;;;;;4178493;28;20053;-53
2022/01/22 06:50:14;;;;;;;0.00;0.00;;;2.20;72.30;;;;;;4178165;28;20068;-56
2022/01/22 06:52:58;;;;;;;0.00;0.00;;;2.10;72.30;;;;;;4178279;28;20060;-51
2022/01/22 06:55:42;;;;;;;0.00;0.00;;;2.10;72.80;;;;;;4141320;28;20096;-57
2022/01/22 06:58:07;;;;;;;0.00;0.00;;;2.00;73.20;;;;;;4177672;28;20041;-57
2022/01/22 07:00:33;;;;;;;0.00;0.00;;;2.00;73.40;;;;;;4172981;28;20045;-57
2022/01/22 07:03:15;;;;;;;0.00;0.00;;;1.90;73.60;;;;;;4153943;28;20073;-57
2022/01/22 07:05:41;;;;;;;0.00;0.00;;;1.90;73.90;;;;;;4147895;28;20080;-58
2022/01/22 07:08:10;;;;;;;0.00;0.00;;;2.00;73.90;;;;;;4175580;28;20112;-57
2022/01/22 07:10:37;;;;;;;0.00;0.00;;;2.20;73.80;;;;;;4187953;28;20041;-58
2022/01/22 07:13:00;;;;;;;0.00;0.00;;;2.50;73.00;;;;;;4161562;28;20140;-56
2022/01/22 07:15:22;;;;;;;0.00;0.00;;;2.60;72.60;;;;;;4161654;28;20076;-52
2022/01/22 07:17:48;;;;;;;0.00;0.00;;;2.70;72.30;;;;;;4138831;28;20630;-59
2022/01/22 07:20:15;;;;;;;0.00;0.00;;;2.80;71.90;;;;;;4145422;28;20065;-56
2022/01/22 07:22:49;;;;;;;0.00;0.00;;;2.80;71.80;;;;;;4151970;28;20076;-59
2022/01/22 07:25:30;;;;;;;0.00;0.00;;;2.70;71.80;;;;;;4161490;28;20422;-59
2022/01/22 07:28:00;;;;;;;0.00;0.00;;;2.60;71.60;;;;;;4161488;28;20057;-57
2022/01/22 07:30:25;;;;;;;0.00;0.00;;;2.60;71.30;;;;;;4137960;28;20097;-59
2022/01/22 07:32:49;;;;;;;0.00;0.00;;;2.60;71.00;;;;;;4177896;28;20136;-59
2022/01/22 07:35:17;;;;;;;0.00;0.00;;;2.50;70.50;;;;;;4165593;28;20556;-58
2022/01/22 07:37:43;;;;;;;0.00;0.00;;;2.50;70.30;;;;;;4161480;28;20049;-58
2022/01/22 07:40:11;;;;;;;0.00;0.00;;;2.60;70.10;;;;;;4171770;28;20551;-60
2022/01/22 07:42:53;;;;;;;0.00;0.00;;;2.70;69.90;;;;;;4177913;28;20055;-57
2022/01/22 07:45:44;;;;;;;;;;;2.70;69.80;;;;;;4177458;28;20041;-58
2022/01/22 07:48:18;;;;;;;0.00;0.00;;;2.60;69.80;;;;;;4163717;28;19921;-57
2022/01/22 07:50:59;;;;;;;0.00;0.00;;;2.60;69.80;;;;;;4177273;28;20051;-60
2022/01/22 07:53:24;;;;;;;0.00;0.00;;;2.70;69.80;;;;;;4150303;28;20045;-60
2022/01/22 07:55:48;;;;;;;0.00;0.00;;;2.70;69.80;;;;;;4150612;28;20050;-58
2022/01/22 07:58:11;;;;;;;0.00;0.00;;;2.70;69.80;;;;;;4176067;28;20591;-57
2022/01/22 08:00:34;;;;;;;0.00;0.00;;;2.50;70.10;;;;;;4148868;28;20410;-59
2022/01/22 08:02:57;;;;;;;0.00;0.00;;;2.50;70.50;;;;;;4177845;28;20502;-59
2022/01/22 08:05:38;;;;;;;0.00;0.00;;;2.40;70.70;;;;;;4177592;28;20048;-58
2022/01/22 08:08:19;;;;;;;0.00;0.00;;;2.20;71.20;;;;;;4176236;28;20052;-57
2022/01/22 08:11:07;;;;;;;0.00;0.00;;;2.30;71.40;;;;;;4157327;28;20059;-60
2022/01/22 08:13:30;;;;;;;0.00;0.00;;;2.20;71.60;;;;;;4177738;28;20083;-60
2022/01/22 08:15:52;;;;;;;0.00;0.00;;;2.20;71.70;;;;;;4166887;28;20053;-60
2022/01/22 08:18:15;;;;;;;0.00;0.00;;;2.20;71.90;;;;;;4175023;28;20065;-60
2022/01/22 08:20:37;;;;;;;0.00;0.00;;;2.40;72.00;;;;;;4150429;28;20068;-57
2022/01/22 08:23:00;;;;;;;0.00;0.00;;;2.50;71.80;;;;;;4164169;28;20057;-58
2022/01/22 08:25:48;;;;;;;0.00;0.00;;;2.70;71.50;;;;;;4164055;28;20081;-58
2022/01/22 08:31:04;;;;;;;0.00;0.00;;;3.00;70.60;;;;;;4166610;28;20064;-58
2022/01/22 08:36:30;;;;;;;0.00;0.00;;;3.00;70.60;;;;;;4113739;28;20047;-58
2022/01/22 08:38:54;;;;;;;0.00;0.00;;;3.10;70.60;;;;;;4100706;28;20056;-54
2022/01/22 08:41:19;;;;;;;0.00;0.00;;;3.20;70.40;;;;;;4122425;28;20034;-58
2022/01/22 08:43:42;;;;;;;0.00;0.00;;;3.30;70.00;;;;;;4151077;28;20046;-56
2022/01/22 08:46:04;;;;;;;0.00;0.00;;;3.40;69.60;;;;;;4165430;28;20050;-58
2022/01/22 08:48:27;;;;;;;0.00;0.00;;;3.30;69.50;;;;;;4165962;28;20137;-57
2022/01/22 08:50:52;;;;;;;0.00;0.00;;;3.20;69.70;;;;;;4166203;28;20534;-56
2022/01/22 08:53:34;;;;;;;0.00;0.00;;;3.20;69.80;;;;;;4191419;28;20044;-57
2022/01/22 08:56:00;;;;;;;0.00;0.00;;;3.30;69.80;;;;;;4150092;28;20045;-58
2022/01/22 08:58:23;;;;;;;0.00;0.00;;;3.40;69.90;;;;;;4162870;28;20077;-59
2022/01/22 09:01:01;;;;;;;0.00;0.00;;;3.50;69.60;;;;;;4175988;28;20079;-60
2022/01/22 09:03:28;;;;;;;0.00;0.00;;;3.50;69.20;;;;;;4162418;28;20057;-57
2022/01/22 09:06:20;;;;;;;0.00;0.00;;;3.50;69.30;;;;;;4162580;28;20085;-57
2022/01/22 09:09:19;;;;;;;0.00;0.00;;;3.50;69.60;;;;;;4177616;28;20045;-59
2022/01/22 09:11:47;;;;;;;0.00;0.00;;;3.50;69.60;;;;;;4163342;28;20052;-59
2022/01/22 09:14:28;;;;;;;0.00;0.00;;;3.50;69.80;;;;;;4162941;28;20087;-59
2022/01/22 09:16:52;;;;;;;0.00;0.00;;;3.40;70.20;;;;;;4136778;28;20072;-60
2022/01/22 09:19:16;;;;;;;0.00;0.00;;;3.20;70.90;;;;;;4163067;28;20134;-57
2022/01/22 09:21:47;;;;;;;0.00;0.00;;;3.10;71.70;;;;;;4163156;28;20049;-60
2022/01/22 09:24:11;;;;;;;0.00;0.00;;;3.10;72.10;;;;;;4176548;28;20037;-59
2022/01/22 09:26:34;;;;;;;0.00;0.00;;;3.20;72.10;;;;;;4162977;28;20045;-60
2022/01/22 09:28:59;;;;;;;0.00;0.00;;;3.10;72.30;;;;;;4163307;28;20599;-60
2022/01/22 09:31:25;;;;;;;0.00;0.00;;;3.30;72.40;;;;;;4176941;28;20084;-60
2022/01/22 09:33:48;;;;;;;0.00;0.00;;;3.40;72.30;;;;;;4162830;28;20557;-61
2022/01/22 09:36:26;;;;;;;0.00;0.00;;;3.30;72.10;;;;;;4176198;28;20118;-59
2022/01/22 09:39:27;;;;;;;0.00;0.00;;;3.30;72.00;;;;;;4162025;28;20104;-60
2022/01/22 09:42:12;;;;;;;0.00;0.00;;;3.30;71.90;;;;;;4147430;28;20042;-60
2022/01/22 09:44:43;;;;;;;0.00;0.00;;;3.10;72.00;;;;;;4146605;28;20119;-59
2022/01/22 09:47:21;;;;;;;0.00;0.00;;;3.10;72.00;;;;;;4146632;28;20050;-60
2022/01/22 09:49:58;;;;;;;0.00;0.00;;;3.10;72.00;;;;;;4161200;28;20096;-59
2022/01/22 09:52:31;;;;;;;0.00;0.00;;;3.10;71.80;;;;;;4149052;28;20127;-60
2022/01/22 09:54:56;;;;;;;0.00;0.00;;;3.20;72.00;;;;;;4162723;28;20049;-60
2022/01/22 09:57:38;;;;;;;0.00;0.00;;;3.30;71.80;;;;;;4162821;28;20132;-60
2022/01/22 10:00:39;;;;;;;0.00;0.00;;;3.20;71.80;;;;;;4159094;28;20119;-60
2022/01/22 10:03:20;;;;;;;0.00;0.00;;;3.50;71.30;;;;;;4162781;28;20048;-60
2022/01/22 10:06:14;;;;;;;0.00;0.00;;;3.60;70.00;;;;;;4162546;28;20045;-60
2022/01/22 10:09:04;;;;;;;0.00;0.00;;;3.70;69.80;;;;;;4148856;28;20125;-60
2022/01/22 10:12:14;;;;;;;0.00;0.00;;;3.90;69.80;;;;;;4176144;28;20055;-59
2022/01/22 10:15:11;;;;;;;0.00;0.00;;;4.10;69.20;;;;;;4148345;28;20053;-60
2022/01/22 10:17:52;;;;;;;0.00;0.00;;;4.30;68.70;;;;;;4176455;28;20441;-60
2022/01/22 10:20:29;;;;;;;0.00;0.00;;;4.40;67.70;;;;;;4160047;28;20077;-59
2022/01/22 10:22:55;;;;;;;0.00;0.00;;;4.40;67.40;;;;;;4176421;28;20090;-57
2022/01/22 10:25:38;;;;;;;0.00;0.00;;;4.50;67.50;;;;;;4176168;28;20120;-59
2022/01/22 10:28:03;;;;;;;0.00;0.00;;;4.70;67.50;;;;;;4176193;28;20098;-59
2022/01/22 10:30:34;;;;;;;0.00;0.00;;;4.80;66.50;;;;;;4175612;28;20052;-60
2022/01/22 10:36:17;;;;;;;0.00;0.00;;;4.90;66.20;;;;;;4161761;28;20048;-59
2022/01/22 10:38:59;;;;;;;0.00;0.00;;;4.80;65.10;;;;;;4161765;28;20041;-59
2022/01/22 10:41:37;;;;;;;0.00;0.00;;;4.80;65.20;;;;;;4175786;28;20154;-59
2022/01/22 10:44:01;;;;;;;0.00;0.00;;;4.90;66.50;;;;;;4175980;28;20091;-59
2022/01/22 10:49:19;;;;;;;0.00;0.00;;;5.20;66.90;;;;;;4175897;28;20128;-59
2022/01/22 10:52:01;;;;;;;0.00;0.00;;;5.40;65.70;;;;;;4175461;28;20045;-60
2022/01/22 10:54:29;;;;;;;0.00;0.00;;;5.30;65.90;;;;;;4161507;28;20128;-59
2022/01/22 10:56:53;;;;;;;0.00;0.00;;;5.20;66.10;;;;;;4176013;28;20047;-66
2022/01/22 10:59:17;;;;;;;0.00;0.00;;;5.30;65.80;;;;;;4175809;28;20055;-59
2022/01/22 11:02:00;;;;;;;0.00;0.00;;;5.20;65.60;;;;;;4175383;28;20115;-58
2022/01/22 11:04:27;;;;;;;0.00;0.00;;;5.30;65.10;;;;;;4175507;28;20055;-58
2022/01/22 11:07:01;;;;;;;0.00;0.00;;;5.50;65.10;;;;;;4161767;28;20144;-59
2022/01/22 11:09:44;;;;;;;0.00;0.00;;;6.70;64.30;;;;;;4161859;28;20041;-60
2022/01/22 11:12:07;;;;;;;0.00;0.00;;;8.10;61.80;;;;;;4175399;28;20059;-58
2022/01/22 11:14:32;;;;;;;0.00;0.00;;;8.90;58.70;;;;;;4158785;28;20513;-59
2022/01/22 11:16:55;;;;;;;0.00;0.00;;;9.70;57.10;;;;;;4158949;28;20140;-58
2022/01/22 11:19:24;;;;;;;0.00;0.00;;;9.60;55.10;;;;;;4145474;28;20104;-60
2022/01/22 11:21:52;;;;;;;0.00;0.00;;;9.10;55.10;;;;;;4131552;28;20074;-59
2022/01/22 11:24:20;;;;;;;0.00;0.00;;;8.70;55.80;;;;;;4158729;28;20053;-60
2022/01/22 11:26:53;;;;;;;0.00;0.00;;;8.70;56.40;;;;;;4159096;28;20046;-61
2022/01/22 11:29:16;;;;;;;0.00;0.00;;;9.00;56.20;;;;;;4159044;28;20068;-59
2022/01/22 11:31:41;;;;;;;0.00;0.00;;;9.00;56.00;;;;;;4158871;28;20088;-59
2022/01/22 11:34:05;;;;;;;0.00;0.00;;;9.10;55.70;;;;;;4145273;28;20049;-59
2022/01/22 11:37:09;;;;;;;0.00;0.00;;;9.10;55.70;;;;;;4175135;28;20129;-58
2022/01/22 11:39:32;;;;;;;0.00;0.00;;;9.20;55.50;;;;;;4161592;28;20136;-60
2022/01/22 11:41:58;;;;;;;0.00;0.00;;;9.40;55.00;;;;;;4175135;28;20053;-59
2022/01/22 11:44:25;;;;;;;0.00;0.00;;;9.70;54.80;;;;;;4159982;28;20422;-60
2022/01/22 11:46:58;;;;;;;0.00;0.00;;;9.60;53.90;;;;;;4175635;28;20037;-57
2022/01/22 11:49:27;;;;;;;0.00;0.00;;;8.70;54.70;;;;;;4164678;28;20049;-60
2022/01/22 11:52:13;;;;;;;0.00;0.00;;;8.20;55.80;;;;;;4164459;28;20124;-58
2022/01/22 11:55:00;;;;;;;0.00;0.00;;;7.80;56.10;;;;;;4164146;28;20482;-59
2022/01/22 11:57:26;;;;;;;0.00;0.00;;;7.70;56.40;;;;;;4178632;28;20660;-59
2022/01/22 12:00:24;;;;;;;0.00;0.00;;;7.40;56.20;;;;;;4177551;28;20049;-58
2022/01/22 12:03:13;;;;;;;0.00;0.00;;;7.20;57.10;;;;;;4164214;28;20117;-60
2022/01/22 12:05:56;;;;;;;0.00;0.00;;;7.20;57.00;;;;;;4164693;28;20069;-59
2022/01/22 12:08:19;;;;;;;0.00;0.00;;;7.00;57.20;;;;;;4177910;28;20630;-59
2022/01/22 12:14:25;;;;;;;0.00;0.00;;;6.90;57.50;;;;;;4150884;28;20054;-57
2022/01/22 12:16:10;;;;;;;0.00;0.00;;;6.50;58.50;;;;;;4164428;28;20057;-59
2022/01/22 12:18:38;;;;;;;0.00;0.00;;;6.50;58.80;;;;;;4163940;28;20049;-59
2022/01/22 12:23:29;;;;;;;0.00;0.00;;;6.60;59.00;;;;;;4164344;28;20119;-60
2022/01/22 12:25:53;;;;;;;0.00;0.00;;;6.40;59.80;;;;;;4164383;28;20507;-61
2022/01/22 12:28:38;;;;;;;0.00;0.00;;;6.40;59.80;;;;;;4177528;28;20187;-60
2022/01/22 12:31:03;;;;;;;0.00;0.00;;;6.70;59.40;;;;;;4164473;28;20041;-60
2022/01/22 12:33:29;;;;;;;0.00;0.00;;;6.70;58.80;;;;;;4178081;28;20053;-60
2022/01/22 12:35:58;;;;;;;0.00;0.00;;;6.70;58.70;;;;;;4177933;28;20053;-60
2022/01/22 12:38:26;;;;;;;0.00;0.00;;;6.60;58.70;;;;;;4177655;28;20131;-58
2022/01/22 12:40:57;;;;;;;0.00;0.00;;;6.50;58.70;;;;;;4177693;28;20068;-56
2022/01/22 12:43:30;;;;;;;0.00;0.00;;;6.50;59.00;;;;;;4177799;28;20068;-58
2022/01/22 12:45:56;;;;;;;0.00;0.00;;;6.60;58.60;;;;;;4177816;28;20068;-59
2022/01/22 12:48:20;;;;;;;0.00;0.00;;;6.50;57.60;;;;;;4177324;28;20056;-59
2022/01/22 12:50:43;;;;;;;0.00;0.00;;;6.30;57.50;;;;;;4177577;28;20056;-57
2022/01/22 12:53:11;;;;;;;0.00;0.00;;;6.20;57.80;;;;;;4150007;28;20042;-60
2022/01/22 12:58:22;;;;;;;0.00;0.00;;;6.10;57.60;;;;;;4163489;28;20100;-59
2022/01/22 13:00:45;;;;;;;0.00;0.00;;;5.80;58.10;;;;;;4178625;28;20271;-59
2022/01/22 13:03:07;;;;;;;0.00;0.00;;;5.70;58.70;;;;;;4172487;28;20517;-60
2022/01/22 13:05:30;;;;;;;0.00;0.00;;;5.70;58.70;;;;;;4160920;28;20095;-60
2022/01/22 13:08:28;;;;;;;0.00;0.00;;;5.70;58.80;;;;;;4164464;28;20070;-59
2022/01/22 13:11:07;;;;;;;0.00;0.00;;;5.80;59.20;;;;;;4179700;28;20096;-59
2022/01/22 13:13:31;;;;;;;0.00;0.00;;;5.80;59.90;;;;;;4180040;28;20079;-59
2022/01/22 13:16:06;;;;;;;0.00;0.00;;;5.90;60.10;;;;;;4180055;28;20208;-60
2022/01/22 13:18:43;;;;;;;0.00;0.00;;;5.80;60.90;;;;;;4179500;28;20049;-59
2022/01/22 13:21:10;;;;;;;0.00;0.00;;;5.80;61.00;;;;;;4166162;28;20497;-56
2022/01/22 13:23:32;;;;;;;0.00;0.00;;;5.90;61.20;;;;;;4179828;28;20049;-58
2022/01/22 13:25:56;;;;;;;0.00;0.00;;;6.20;60.20;;;;;;4179946;28;20053;-59
2022/01/22 13:28:19;;;;;;;0.00;0.00;;;6.30;59.70;;;;;;4149186;28;20046;-59
2022/01/22 13:30:49;;;;;;;0.00;0.00;;;6.40;59.30;;;;;;4167179;28;20119;-58
2022/01/22 13:33:26;;;;;;;0.00;0.00;;;6.30;59.20;;;;;;4179821;28;20037;-59
2022/01/22 13:36:13;;;;;;;0.00;0.00;;;6.20;59.20;;;;;;4138794;28;20141;-59
2022/01/22 13:39:07;;;;;;;0.00;0.00;;;6.20;59.70;;;;;;4179368;28;20628;-60
2022/01/22 13:49:42;;;;;;;0.00;0.00;;;5.90;59.70;;;;;;4192962;28;20049;-59
2022/01/22 13:52:10;;;;;;;0.00;0.00;;;5.60;60.10;;;;;;4192939;28;20150;-61
2022/01/22 13:54:41;;;;;;;0.00;0.00;;;5.60;60.70;;;;;;4162132;28;20652;-59
2022/01/22 13:57:07;;;;;;;0.00;0.00;;;5.70;60.90;;;;;;4162882;28;20099;-59
2022/01/22 13:59:41;;;;;;;0.00;0.00;;;5.70;61.40;;;;;;4179029;28;20107;-59
2022/01/22 14:04:48;;;;;;;0.00;0.00;;;5.80;62.00;;;;;;4162355;28;20045;-60
2022/01/22 14:07:40;;;;;;;0.00;0.00;;;5.70;62.30;;;;;;4162757;28;20490;-60
2022/01/22 14:10:14;;;;;;;0.00;0.00;;;5.80;62.60;;;;;;4162473;28;20529;-60
2022/01/22 14:12:46;;;;;;;0.00;0.00;;;5.90;62.80;;;;;;4175103;28;20079;-60
2022/01/22 14:15:14;;;;;;;0.00;0.00;;;5.90;62.80;;;;;;4162284;28;20475;-60
2022/01/22 14:18:15;;;;;;;0.00;0.00;;;6.00;62.80;;;;;;4162487;28;20046;-60
2022/01/22 14:20:43;;;;;;;0.00;0.00;;;6.10;62.70;;;;;;4165338;28;20041;-60
2022/01/22 14:23:08;;;;;;;0.00;0.00;;;6.00;63.10;;;;;;4178913;28;20053;-59
2022/01/22 14:25:33;;;;;;;0.00;0.00;;;6.10;63.10;;;;;;4178747;28;20048;-58
2022/01/22 14:27:57;;;;;;;0.00;0.00;;;6.20;62.80;;;;;;4178902;28;20509;-60
2022/01/22 14:30:38;;;;;;;0.00;0.00;;;6.00;63.20;;;;;;4192401;28;20045;-60
2022/01/22 14:33:15;;;;;;;0.00;0.00;;;5.90;63.80;;;;;;4166800;28;20056;-60
2022/01/22 14:35:40;;;;;;;0.00;0.00;;;5.70;64.50;;;;;;4192452;28;20511;-61
2022/01/22 14:38:23;;;;;;;0.00;0.00;;;5.70;64.70;;;;;;4178809;28;20052;-59
2022/01/22 14:44:05;;;;;;;0.00;0.00;;;5.70;64.70;;;;;;4178636;28;20045;-59
2022/01/22 14:46:52;;;;;;;0.00;0.00;;;5.70;65.00;;;;;;4192229;28;20127;-60
2022/01/22 14:49:15;;;;;;;0.00;0.00;;;5.60;65.20;;;;;;4192602;28;20140;-60
2022/01/22 14:51:37;;;;;;;0.00;0.00;;;5.60;65.50;;;;;;4178377;28;20049;-60
2022/01/22 14:53:59;;;;;;;0.00;0.00;;;5.50;65.90;;;;;;4178308;28;20068;-59
2022/01/22 14:56:22;;;;;;;0.00;0.00;;;5.50;66.10;;;;;;4162969;28;20053;-57
2022/01/22 14:58:44;;;;;;;0.00;0.00;;;5.30;66.60;;;;;;4178682;28;20045;-59
2022/01/22 15:01:09;;;;;;;0.00;0.00;;;5.30;67.10;;;;;;4192109;28;20052;-57
2022/01/22 15:03:32;;;;;;;0.00;0.00;;;5.40;67.00;;;;;;4178406;28;20044;-58